Eikyu Maru No.88 — JM6714 — position and weather

sailwx.info

Track history (hours):
 
Tides and Currents Weather Stations Pressure Air Temp Water Temp Dewpoint Dewpoint Depression Visibility Wind Speed Wind Dir Waves Ship Positions

Eikyu Maru No.88

Last reported at 2017-Nov-18 00:26 UTC. Time now 2017-Nov-19 06:26 UTC.
Position N 34°35' E 135°04'.

Length 75 m.

Type: Cargo ship. MMSI: 431602099.

Date/timePositionNaut miles runAvg speedWind from/ knotsBaromVisibWave heightAir tempDewpointWater temp
2017-Nov-18 00:26N 34°35' E 135°04'  
2017-Nov-11 23:54N 35°02' E 139°44'512.0
2017-Nov-11 23:29N 35°07' E 139°45'612.0
2017-Nov-11 22:59N 35°13' E 139°46'611.1
2017-Nov-11 22:27N 35°18' E 139°44'510.9
2017-Nov-11 22:00N 35°23' E 139°42'611.2
2017-Nov-11 21:27N 35°27' E 139°48'4 0.1
2017-Nov-10 17:24N 35°24' E 139°46'510.8
2017-Nov-10 16:58N 35°20' E 139°44'5 9.5
2017-Nov-10 16:25N 35°15' E 139°47'510.4
2017-Nov-10 15:59N 35°10' E 139°46'510.5
2017-Nov-10 15:30N 35°05' E 139°44'  
2017-Nov-08 09:22N 34°37' E 135°01'4 9.1
2017-Nov-08 08:58N 34°36' E 135°05'611.2
2017-Nov-08 08:25N 34°37' E 135°13'410.8
2017-Nov-08 08:00N 34°38' E 135°18'7 1.2
2017-Nov-08 02:36N 34°39' E 135°26'1 6.8
2017-Nov-08 02:26N 34°39' E 135°25'4 9.8
2017-Nov-08 01:59N 34°36' E 135°20'610.6
2017-Nov-08 01:27N 34°35' E 135°14'  
Track history (hours):
 
Tides and Currents Weather Stations Pressure Air Temp Water Temp Dewpoint Dewpoint Depression Visibility Wind Speed Wind Dir Waves Ship Positions

Eikyu Maru No.88

Last reported at 2017-Nov-18 00:26 UTC. Time now 2017-Nov-19 06:26 UTC.
Position N 34°35' E 135°04'.

Length 75 m.

Type: Cargo ship. MMSI: 431602099.

Date/timePositionNaut miles runAvg speedWind from/ knotsBaromVisibWave heightAir tempDewpointWater temp
2017-Nov-18 00:26N 34°35' E 135°04'  
2017-Nov-11 23:54N 35°02' E 139°44'512.0
2017-Nov-11 23:29N 35°07' E 139°45'612.0
2017-Nov-11 22:59N 35°13' E 139°46'611.1
2017-Nov-11 22:27N 35°18' E 139°44'510.9
2017-Nov-11 22:00N 35°23' E 139°42'611.2
2017-Nov-11 21:27N 35°27' E 139°48'4 0.1
2017-Nov-10 17:24N 35°24' E 139°46'510.8
2017-Nov-10 16:58N 35°20' E 139°44'5 9.5
2017-Nov-10 16:25N 35°15' E 139°47'510.4
2017-Nov-10 15:59N 35°10' E 139°46'510.5
2017-Nov-10 15:30N 35°05' E 139°44'  
2017-Nov-08 09:22N 34°37' E 135°01'4 9.1
2017-Nov-08 08:58N 34°36' E 135°05'611.2
2017-Nov-08 08:25N 34°37' E 135°13'410.8
2017-Nov-08 08:00N 34°38' E 135°18'7 1.2
2017-Nov-08 02:36N 34°39' E 135°26'1 6.8
2017-Nov-08 02:26N 34°39' E 135°25'4 9.8
2017-Nov-08 01:59N 34°36' E 135°20'610.6
2017-Nov-08 01:27N 34°35' E 135°14'  

Dump ship's entire track history